Time;durP1;ratioP1;P1;durP2;ratioP2;P2;SDS_P1;SDS_P2;PMS_P1;PMS_P2;Temp;Humidity;BMP_temperature;BMP_pressure;BME280_temperature;BME280_humidity;BME280_pressure;Samples;Min_cycle;Max_cycle;Signal;HPM_P1;HPM_P2
2022/08/26 00:01:55;;;;;;;3.57;2.07;;;;;;;;;;4989394;28;20572;-67
2022/08/26 00:04:24;;;;;;;1.80;1.80;;;;;;;;;;4987958;28;20433;-67
2022/08/26 00:06:51;;;;;;;1.80;1.70;;;;;;;;;;4988668;28;20785;-68
2022/08/26 00:09:17;;;;;;;2.03;1.93;;;;;;;;;;4987821;28;20960;-68
2022/08/26 00:11:45;;;;;;;2.87;2.10;;;;;;;;;;5005383;28;20429;-67
2022/08/26 00:14:12;;;;;;;2.43;1.80;;;;;;;;;;4988785;28;20441;-67
2022/08/26 00:16:38;;;;;;;1.90;1.80;;;;;;;;;;4989244;28;20480;-68
2022/08/26 00:19:04;;;;;;;2.10;2.00;;;;;;;;;;5002662;28;20455;-67
2022/08/26 00:21:30;;;;;;;11.73;3.30;;;;;;;;;;4988848;28;20544;-68
2022/08/26 00:23:56;;;;;;;2.33;2.23;;;;;;;;;;4993130;28;20429;-68
2022/08/26 00:26:22;;;;;;;2.13;2.00;;;;;;;;;;4993800;28;20425;-69
2022/08/26 00:28:48;;;;;;;3.33;1.87;;;;;;;;;;4992548;28;20551;-67
2022/08/26 00:31:15;;;;;;;2.63;2.13;;;;;;;;;;4992888;28;20433;-68
2022/08/26 00:33:40;;;;;;;1.60;1.60;;;;;;;;;;4991962;28;20437;-67
2022/08/26 00:36:07;;;;;;;1.77;1.67;;;;;;;;;;4992193;28;20543;-69
2022/08/26 00:38:34;;;;;;;3.20;2.07;;;;;;;;;;4992468;28;20435;-68
2022/08/26 00:41:00;;;;;;;3.20;2.07;;;;;;;;;;4991241;28;20487;-68
2022/08/26 00:43:27;;;;;;;1.90;1.90;;;;;;;;;;4992181;28;20454;-69
2022/08/26 00:46:16;;;;;;;7.33;2.00;;;;;;;;;;4993265;28;20437;-66
2022/08/26 00:48:43;;;;;;;1.87;1.77;;;;;;;;;;4993103;28;21001;-67
2022/08/26 00:51:24;;;;;;;1.93;1.93;;;;;;;;;;5003836;28;20436;-67
2022/08/26 00:53:52;;;;;;;1.70;1.70;;;;;;;;;;4993576;28;20428;-65
2022/08/26 00:56:36;;;;;;;1.70;1.70;;;;;;;;;;4991858;28;20619;-68
2022/08/26 00:59:05;;;;;;;3.90;2.07;;;;;;;;;;4993092;28;20420;-66
2022/08/26 01:01:31;;;;;;;2.40;1.43;;;;;;;;;;4990598;28;20425;-68
2022/08/26 01:03:57;;;;;;;2.67;2.57;;;;;;;;;;5006698;28;20429;-68
2022/08/26 01:06:23;;;;;;;1.77;1.73;;;;;;;;;;4987879;28;20504;-66
2022/08/26 01:08:50;;;;;;;6.43;2.30;;;;;;;;;;4993398;28;20428;-68
2022/08/26 01:11:17;;;;;;;1.80;1.80;;;;;;;;;;4991657;28;20436;-68
2022/08/26 01:13:43;;;;;;;2.10;2.10;;;;;;;;;;4992803;28;20432;-66
2022/08/26 01:16:10;;;;;;;2.43;1.87;;;;;;;;;;4992489;28;20481;-67
2022/08/26 01:18:36;;;;;;;1.93;1.93;;;;;;;;;;4992316;28;20984;-67
2022/08/26 01:21:07;;;;;;;1.37;1.37;;;;;;;;;;4989205;28;20500;-66
2022/08/26 01:23:35;;;;;;;2.60;1.97;;;;;;;;;;4991142;28;20437;-66
2022/08/26 01:26:19;;;;;;;2.10;2.00;;;;;;;;;;4989172;28;20447;-67
2022/08/26 01:28:45;;;;;;;2.30;1.80;;;;;;;;;;4992277;28;20476;-67
2022/08/26 01:31:13;;;;;;;2.00;2.00;;;;;;;;;;4986990;28;20465;-66
2022/08/26 01:33:52;;;;;;;1.90;1.90;;;;;;;;;;4990868;28;20495;-67
2022/08/26 01:36:18;;;;;;;1.83;1.83;;;;;;;;;;4992715;28;20489;-68
2022/08/26 01:38:44;;;;;;;1.80;1.70;;;;;;;;;;4992448;28;20419;-67
2022/08/26 01:41:15;;;;;;;3.80;2.10;;;;;;;;;;4990951;28;20833;-68
2022/08/26 01:43:42;;;;;;;2.30;1.87;;;;;;;;;;4990995;28;20448;-69
2022/08/26 01:46:09;;;;;;;2.10;2.10;;;;;;;;;;4991847;28;20451;-68
2022/08/26 01:48:36;;;;;;;2.53;1.70;;;;;;;;;;4992793;28;20844;-68
2022/08/26 01:51:03;;;;;;;2.00;2.00;;;;;;;;;;5005996;28;21034;-66
2022/08/26 01:53:29;;;;;;;2.20;2.10;;;;;;;;;;4987924;28;20530;-67
2022/08/26 01:55:57;;;;;;;4.87;1.80;;;;;;;;;;5007089;28;20479;-67
2022/08/26 01:58:35;;;;;;;1.70;1.70;;;;;;;;;;4992221;28;20456;-67
2022/08/26 02:01:02;;;;;;;15.33;3.07;;;;;;;;;;4987211;28;20472;-67
2022/08/26 02:03:28;;;;;;;3.13;2.67;;;;;;;;;;4991527;28;20440;-66
2022/08/26 02:05:56;;;;;;;2.00;2.00;;;;;;;;;;4991577;28;20948;-66
2022/08/26 02:08:25;;;;;;;2.10;2.10;;;;;;;;;;4991074;28;20498;-67
2022/08/26 02:10:51;;;;;;;1.67;1.67;;;;;;;;;;4990959;28;20508;-67
2022/08/26 02:13:17;;;;;;;2.10;2.10;;;;;;;;;;4988111;28;22336;-68
2022/08/26 02:15:44;;;;;;;8.93;2.93;;;;;;;;;;4991305;28;20484;-69
2022/08/26 02:18:11;;;;;;;5.50;2.30;;;;;;;;;;4992278;28;20421;-67
2022/08/26 02:20:37;;;;;;;2.50;1.87;;;;;;;;;;4988105;28;20433;-69
2022/08/26 02:23:03;;;;;;;2.23;2.13;;;;;;;;;;4985430;28;20441;-68
2022/08/26 02:25:29;;;;;;;2.87;2.77;;;;;;;;;;4988654;28;20436;-67
2022/08/26 02:27:56;;;;;;;2.97;2.10;;;;;;;;;;4991817;28;20465;-69
2022/08/26 02:30:26;;;;;;;4.17;2.57;;;;;;;;;;4991268;28;20564;-69
2022/08/26 02:32:53;;;;;;;5.33;2.23;;;;;;;;;;4990346;28;20520;-66
2022/08/26 02:35:20;;;;;;;1.93;1.93;;;;;;;;;;5005897;28;20458;-67
2022/08/26 02:37:47;;;;;;;2.70;2.60;;;;;;;;;;4989184;28;20436;-66
2022/08/26 02:40:14;;;;;;;3.53;2.50;;;;;;;;;;4991509;28;20433;-67
2022/08/26 02:42:40;;;;;;;2.63;2.43;;;;;;;;;;4991546;28;20461;-66
2022/08/26 02:45:07;;;;;;;2.87;2.70;;;;;;;;;;5004587;28;20473;-66
2022/08/26 02:47:33;;;;;;;2.70;2.60;;;;;;;;;;4989028;28;20451;-68
2022/08/26 02:49:59;;;;;;;2.97;2.43;;;;;;;;;;4989926;28;20420;-67
2022/08/26 02:52:25;;;;;;;2.90;2.80;;;;;;;;;;4991341;28;20829;-68
2022/08/26 02:54:51;;;;;;;2.80;2.57;;;;;;;;;;4991133;28;20429;-68
2022/08/26 02:57:18;;;;;;;5.17;2.80;;;;;;;;;;4988171;28;21284;-69
2022/08/26 02:59:44;;;;;;;2.83;2.53;;;;;;;;;;5004982;28;20435;-69
2022/08/26 03:02:11;;;;;;;3.77;3.60;;;;;;;;;;4991061;28;20523;-68
2022/08/26 03:04:37;;;;;;;2.77;2.67;;;;;;;;;;4990194;28;20456;-68
2022/08/26 03:07:04;;;;;;;4.50;2.90;;;;;;;;;;4988959;28;20965;-68
2022/08/26 03:09:30;;;;;;;3.30;2.40;;;;;;;;;;4987549;28;20495;-68
2022/08/26 03:11:56;;;;;;;2.67;2.47;;;;;;;;;;4988666;28;20445;-69
2022/08/26 03:14:22;;;;;;;2.57;2.50;;;;;;;;;;4989170;28;20429;-67
2022/08/26 03:16:51;;;;;;;3.90;3.67;;;;;;;;;;4989962;28;20540;-68
2022/08/26 03:19:17;;;;;;;3.63;3.43;;;;;;;;;;4989862;28;20569;-67
2022/08/26 03:21:43;;;;;;;2.80;2.60;;;;;;;;;;4987877;28;20456;-69
2022/08/26 03:24:10;;;;;;;3.03;2.93;;;;;;;;;;4986889;28;20496;-67
2022/08/26 03:26:36;;;;;;;3.43;3.27;;;;;;;;;;4986906;28;20444;-67
2022/08/26 03:31:47;;;;;;;3.33;3.23;;;;;;;;;;4990237;28;20499;-68
2022/08/26 03:34:13;;;;;;;3.00;2.80;;;;;;;;;;4990334;28;20440;-68
2022/08/26 03:36:39;;;;;;;3.07;2.93;;;;;;;;;;4989397;28;21055;-69
2022/08/26 03:39:05;;;;;;;2.40;2.40;;;;;;;;;;4988069;28;20445;-68
2022/08/26 03:41:33;;;;;;;6.10;3.03;;;;;;;;;;4989010;28;20811;-69
2022/08/26 03:43:59;;;;;;;2.43;2.43;;;;;;;;;;4989112;28;20480;-69
2022/08/26 03:46:25;;;;;;;2.87;2.30;;;;;;;;;;4990304;28;20855;-69
2022/08/26 03:48:51;;;;;;;3.17;2.40;;;;;;;;;;4989445;28;20440;-69
2022/08/26 03:51:18;;;;;;;2.73;2.70;;;;;;;;;;4989809;28;20579;-67
2022/08/26 03:53:44;;;;;;;2.00;1.90;;;;;;;;;;4986428;28;20428;-69
2022/08/26 03:56:11;;;;;;;6.83;2.57;;;;;;;;;;4988659;28;20845;-68
2022/08/26 03:58:37;;;;;;;3.00;2.80;;;;;;;;;;4988019;28;20432;-68
2022/08/26 04:01:03;;;;;;;2.00;2.00;;;;;;;;;;4989581;28;20413;-68
2022/08/26 04:06:14;;;;;;;4.27;2.60;;;;;;;;;;4987987;28;20468;-68
2022/08/26 04:08:40;;;;;;;9.30;3.13;;;;;;;;;;4989646;28;20480;-69
2022/08/26 04:11:06;;;;;;;4.87;2.70;;;;;;;;;;4989486;28;20440;-69
2022/08/26 04:13:32;;;;;;;2.77;2.67;;;;;;;;;;5003839;28;20197;-68
2022/08/26 04:15:58;;;;;;;2.10;2.10;;;;;;;;;;4989359;28;20489;-70
2022/08/26 04:18:26;;;;;;;2.83;2.27;;;;;;;;;;4972465;28;20841;-68
2022/08/26 04:20:52;;;;;;;2.77;2.57;;;;;;;;;;4988390;28;20528;-68
2022/08/26 04:23:18;;;;;;;4.20;2.77;;;;;;;;;;4987849;28;20516;-67
2022/08/26 04:25:44;;;;;;;7.07;2.30;;;;;;;;;;4988194;28;20449;-69
2022/08/26 04:28:12;;;;;;;2.60;2.50;;;;;;;;;;4987424;28;20236;-68
2022/08/26 04:30:38;;;;;;;2.20;2.20;;;;;;;;;;4987263;28;20957;-69
2022/08/26 04:33:04;;;;;;;2.37;2.37;;;;;;;;;;4989365;28;20984;-69
2022/08/26 04:35:31;;;;;;;2.90;2.87;;;;;;;;;;4988831;28;20559;-68
2022/08/26 04:37:57;;;;;;;2.70;2.50;;;;;;;;;;4988207;28;20930;-67
2022/08/26 04:40:26;;;;;;;3.17;3.17;;;;;;;;;;4989331;28;20510;-67
2022/08/26 04:42:52;;;;;;;3.13;2.57;;;;;;;;;;4988233;28;20468;-68
2022/08/26 04:45:18;;;;;;;3.10;2.90;;;;;;;;;;4978772;28;20549;-67
2022/08/26 04:47:45;;;;;;;3.97;3.63;;;;;;;;;;4988786;28;20472;-68
2022/08/26 04:50:11;;;;;;;2.90;2.80;;;;;;;;;;4986039;28;20523;-66
2022/08/26 04:52:37;;;;;;;3.10;3.00;;;;;;;;;;4986825;28;20436;-67
2022/08/26 04:55:04;;;;;;;3.80;3.50;;;;;;;;;;4986677;28;20465;-65
2022/08/26 04:57:30;;;;;;;3.93;3.63;;;;;;;;;;4988714;28;20493;-68
2022/08/26 04:59:56;;;;;;;3.03;2.93;;;;;;;;;;4983639;28;20425;-67
2022/08/26 05:02:23;;;;;;;3.50;3.20;;;;;;;;;;4998351;28;21029;-67
2022/08/26 05:04:49;;;;;;;3.40;3.10;;;;;;;;;;4986847;28;20464;-67
2022/08/26 05:07:14;;;;;;;4.77;3.03;;;;;;;;;;4987686;28;20455;-66
2022/08/26 05:09:41;;;;;;;5.70;3.20;;;;;;;;;;4984091;28;20432;-66
2022/08/26 05:12:08;;;;;;;4.77;3.30;;;;;;;;;;4989503;28;20816;-67
2022/08/26 05:14:34;;;;;;;4.53;3.27;;;;;;;;;;4990418;28;20980;-66
2022/08/26 05:17:00;;;;;;;3.30;3.10;;;;;;;;;;4992065;28;20492;-69
2022/08/26 05:19:26;;;;;;;7.33;6.90;;;;;;;;;;4988570;28;20483;-68
2022/08/26 05:21:53;;;;;;;4.27;4.07;;;;;;;;;;4989569;28;20451;-69
2022/08/26 05:24:18;;;;;;;7.03;3.53;;;;;;;;;;4991511;28;20429;-69
2022/08/26 05:26:46;;;;;;;3.40;3.30;;;;;;;;;;4992645;28;20444;-68
2022/08/26 05:29:12;;;;;;;6.67;3.30;;;;;;;;;;4988905;28;20451;-67
2022/08/26 05:31:38;;;;;;;3.67;3.57;;;;;;;;;;4992292;28;20440;-70
2022/08/26 05:34:05;;;;;;;4.07;3.60;;;;;;;;;;4986898;28;20451;-69
2022/08/26 05:36:32;;;;;;;3.87;3.67;;;;;;;;;;4989030;28;21007;-69
2022/08/26 05:38:58;;;;;;;5.17;4.33;;;;;;;;;;4989041;28;20990;-70
2022/08/26 05:41:27;;;;;;;3.53;3.33;;;;;;;;;;4988132;28;20465;-69
2022/08/26 05:43:54;;;;;;;4.90;4.60;;;;;;;;;;5005808;28;20425;-69
2022/08/26 05:46:20;;;;;;;3.63;3.50;;;;;;;;;;4992625;28;20941;-69
2022/08/26 05:48:46;;;;;;;3.50;3.30;;;;;;;;;;4991625;28;20433;-70
2022/08/26 05:51:12;;;;;;;3.80;3.50;;;;;;;;;;4990332;28;20437;-70
2022/08/26 05:53:39;;;;;;;3.90;3.70;;;;;;;;;;4990633;28;20425;-68
2022/08/26 05:56:06;;;;;;;5.90;4.70;;;;;;;;;;4991275;28;20472;-68
2022/08/26 05:58:33;;;;;;;4.30;4.10;;;;;;;;;;4992510;28;20853;-69
2022/08/26 06:01:06;;;;;;;4.90;4.60;;;;;;;;;;4985883;28;20425;-70
2022/08/26 06:03:37;;;;;;;4.60;4.40;;;;;;;;;;4988200;28;20528;-69
2022/08/26 06:06:07;;;;;;;4.47;4.00;;;;;;;;;;4991041;28;20511;-69
2022/08/26 06:08:34;;;;;;;3.83;3.60;;;;;;;;;;4987776;28;20975;-69
2022/08/26 06:11:01;;;;;;;5.13;4.73;;;;;;;;;;5001168;28;20437;-67
2022/08/26 06:13:28;;;;;;;7.43;4.70;;;;;;;;;;5005506;28;20448;-67
2022/08/26 06:15:55;;;;;;;4.80;4.47;;;;;;;;;;4989526;28;20531;-67
2022/08/26 06:18:22;;;;;;;5.23;5.10;;;;;;;;;;4988740;28;20564;-66
2022/08/26 06:20:49;;;;;;;4.80;4.60;;;;;;;;;;4986910;28;21175;-66
2022/08/26 06:26:01;;;;;;;4.83;4.43;;;;;;;;;;4989247;28;20440;-66
2022/08/26 06:28:27;;;;;;;4.53;4.40;;;;;;;;;;4989982;28;20481;-67
2022/08/26 06:30:54;;;;;;;4.07;3.77;;;;;;;;;;4989346;28;20491;-66
2022/08/26 06:33:20;;;;;;;4.37;4.17;;;;;;;;;;4987510;28;20937;-66
2022/08/26 06:35:47;;;;;;;4.20;4.03;;;;;;;;;;4990834;28;20453;-66
2022/08/26 06:38:13;;;;;;;4.83;4.50;;;;;;;;;;4991762;28;20925;-66
2022/08/26 06:40:44;;;;;;;16.50;4.57;;;;;;;;;;4989852;28;20433;-66
2022/08/26 06:43:10;;;;;;;7.53;4.30;;;;;;;;;;4990110;28;20421;-67
2022/08/26 06:45:37;;;;;;;6.13;4.30;;;;;;;;;;4991744;28;20422;-66
2022/08/26 06:48:03;;;;;;;5.43;4.50;;;;;;;;;;4991559;28;20429;-66
2022/08/26 06:50:29;;;;;;;8.97;3.80;;;;;;;;;;4989134;28;21156;-67
2022/08/26 06:52:55;;;;;;;5.33;4.40;;;;;;;;;;4990064;28;20532;-67
2022/08/26 06:55:21;;;;;;;6.50;4.30;;;;;;;;;;4986933;28;20556;-67
2022/08/26 06:57:47;;;;;;;4.63;4.17;;;;;;;;;;5005363;28;20944;-66
2022/08/26 07:00:14;;;;;;;4.67;4.47;;;;;;;;;;4990679;28;20670;-67
2022/08/26 07:02:40;;;;;;;3.60;3.40;;;;;;;;;;4989834;28;20509;-66
2022/08/26 07:05:06;;;;;;;3.97;3.67;;;;;;;;;;4990922;28;20515;-67
2022/08/26 07:07:32;;;;;;;3.90;3.63;;;;;;;;;;4991049;28;20432;-67
2022/08/26 07:09:58;;;;;;;3.90;3.57;;;;;;;;;;4990511;28;20433;-66
2022/08/26 07:12:25;;;;;;;3.10;3.10;;;;;;;;;;4986650;28;20531;-66
2022/08/26 07:14:51;;;;;;;3.57;3.27;;;;;;;;;;5004712;28;20523;-66
2022/08/26 07:17:18;;;;;;;4.00;3.37;;;;;;;;;;4990723;28;20489;-67
2022/08/26 07:19:44;;;;;;;5.03;3.07;;;;;;;;;;4990370;28;20428;-66
2022/08/26 07:22:10;;;;;;;4.33;3.60;;;;;;;;;;4990980;28;20425;-67
2022/08/26 07:24:39;;;;;;;3.27;3.17;;;;;;;;;;4988682;28;20425;-66
2022/08/26 07:27:06;;;;;;;2.97;2.90;;;;;;;;;;4990556;28;20461;-67
2022/08/26 07:29:33;;;;;;;3.03;3.03;;;;;;;;;;4989886;28;20447;-66
2022/08/26 07:31:59;;;;;;;3.17;2.97;;;;;;;;;;5005281;28;20441;-67
2022/08/26 07:34:25;;;;;;;2.80;2.80;;;;;;;;;;4986091;28;20425;-67
2022/08/26 07:36:51;;;;;;;3.27;3.27;;;;;;;;;;4987932;28;20484;-66
2022/08/26 07:39:17;;;;;;;3.17;3.07;;;;;;;;;;5005283;28;20428;-66
2022/08/26 07:41:46;;;;;;;17.73;3.20;;;;;;;;;;4990436;28;20437;-67
2022/08/26 07:44:12;;;;;;;3.10;2.90;;;;;;;;;;4987423;28;20869;-67
2022/08/26 07:46:38;;;;;;;5.80;2.90;;;;;;;;;;4990015;28;20516;-66
2022/08/26 07:49:04;;;;;;;4.03;2.40;;;;;;;;;;4990698;28;20484;-68
2022/08/26 07:51:30;;;;;;;2.67;2.57;;;;;;;;;;4986737;28;20425;-67
2022/08/26 07:53:56;;;;;;;3.10;2.90;;;;;;;;;;4990266;28;20435;-67
2022/08/26 07:56:23;;;;;;;3.07;2.40;;;;;;;;;;5004971;28;20539;-66
2022/08/26 07:58:49;;;;;;;4.07;2.90;;;;;;;;;;4989323;28;20483;-66
2022/08/26 08:01:15;;;;;;;8.00;5.03;;;;;;;;;;5000792;28;20421;-67
2022/08/26 08:03:41;;;;;;;9.50;3.60;;;;;;;;;;4990119;28;20496;-66
2022/08/26 08:06:08;;;;;;;2.70;2.53;;;;;;;;;;4989672;28;20417;-66
2022/08/26 08:08:35;;;;;;;13.17;3.13;;;;;;;;;;4988580;28;20425;-66
2022/08/26 08:11:01;;;;;;;5.50;3.67;;;;;;;;;;4984547;28;20472;-66
2022/08/26 08:13:28;;;;;;;6.07;5.47;;;;;;;;;;4984680;28;20434;-66
2022/08/26 08:15:54;;;;;;;16.90;9.33;;;;;;;;;;4982416;28;20526;-66
2022/08/26 08:18:22;;;;;;;6.30;5.80;;;;;;;;;;4984765;28;20483;-66
2022/08/26 08:20:48;;;;;;;10.63;6.63;;;;;;;;;;4985890;28;20448;-67
2022/08/26 08:23:15;;;;;;;6.93;6.30;;;;;;;;;;4984345;28;21027;-67
2022/08/26 08:25:41;;;;;;;5.00;4.80;;;;;;;;;;4988381;28;20548;-66
2022/08/26 08:28:07;;;;;;;3.10;3.00;;;;;;;;;;4989442;28;20918;-66
2022/08/26 08:30:33;;;;;;;4.20;2.80;;;;;;;;;;4984246;28;20445;-68
2022/08/26 08:32:59;;;;;;;2.80;2.70;;;;;;;;;;4981201;28;20485;-71
2022/08/26 08:35:25;;;;;;;2.30;2.30;;;;;;;;;;4988245;28;20198;-71
2022/08/26 08:37:53;;;;;;;2.07;2.07;;;;;;;;;;4988963;28;21017;-72
2022/08/26 08:40:20;;;;;;;4.23;2.97;;;;;;;;;;4985692;28;20913;-71
2022/08/26 08:42:47;;;;;;;1.90;1.90;;;;;;;;;;4987174;28;20439;-71
2022/08/26 08:45:16;;;;;;;2.60;2.50;;;;;;;;;;5006887;28;20782;-69
2022/08/26 08:47:46;;;;;;;3.23;2.70;;;;;;;;;;4989462;28;20436;-72
2022/08/26 08:50:30;;;;;;;3.70;2.30;;;;;;;;;;4989151;28;20433;-72
2022/08/26 08:52:56;;;;;;;25.63;6.30;;;;;;;;;;4990622;28;20440;-70
2022/08/26 08:55:23;;;;;;;7.33;3.30;;;;;;;;;;4991261;28;20441;-72
2022/08/26 08:58:13;;;;;;;4.00;2.63;;;;;;;;;;4990736;28;20448;-72
2022/08/26 09:00:43;;;;;;;2.30;2.20;;;;;;;;;;4992208;28;20937;-72
2022/08/26 09:03:18;;;;;;;2.50;2.40;;;;;;;;;;4992644;28;20420;-72
2022/08/26 09:05:50;;;;;;;3.10;2.90;;;;;;;;;;4990159;28;20439;-72
2022/08/26 09:08:17;;;;;;;4.10;2.43;;;;;;;;;;4989893;28;20445;-73
2022/08/26 09:10:46;;;;;;;2.90;2.80;;;;;;;;;;4992500;28;20447;-70
2022/08/26 09:13:14;;;;;;;3.10;2.80;;;;;;;;;;4992585;28;20421;-72
2022/08/26 09:15:46;;;;;;;2.60;2.40;;;;;;;;;;4992742;28;20449;-71
2022/08/26 09:18:31;;;;;;;3.63;2.50;;;;;;;;;;4991822;28;20469;-70
2022/08/26 09:21:02;;;;;;;5.40;2.83;;;;;;;;;;4987615;28;20432;-71
2022/08/26 09:23:28;;;;;;;2.40;2.40;;;;;;;;;;4990080;28;20437;-72
2022/08/26 09:26:00;;;;;;;3.00;2.77;;;;;;;;;;4991608;28;20929;-71
2022/08/26 09:28:26;;;;;;;3.40;3.03;;;;;;;;;;4986949;28;20508;-72
2022/08/26 09:31:22;;;;;;;3.27;3.00;;;;;;;;;;4990399;28;20432;-72
2022/08/26 09:33:50;;;;;;;11.10;3.10;;;;;;;;;;4992887;28;20437;-69
2022/08/26 09:36:32;;;;;;;4.30;3.20;;;;;;;;;;4991197;28;20488;-69
2022/08/26 09:38:58;;;;;;;13.57;2.97;;;;;;;;;;4988785;28;20508;-70
2022/08/26 09:41:31;;;;;;;6.93;3.83;;;;;;;;;;5004817;28;20453;-71
2022/08/26 09:44:03;;;;;;;3.03;2.93;;;;;;;;;;4992093;28;20979;-69
2022/08/26 09:46:31;;;;;;;6.50;3.03;;;;;;;;;;4990210;28;20525;-70
2022/08/26 09:49:17;;;;;;;6.47;3.60;;;;;;;;;;4987277;28;20438;-70
2022/08/26 09:51:43;;;;;;;3.03;2.83;;;;;;;;;;4989936;28;20548;-71
2022/08/26 09:54:25;;;;;;;4.13;3.00;;;;;;;;;;4990367;28;20504;-70
2022/08/26 09:56:51;;;;;;;15.80;3.83;;;;;;;;;;4986610;28;20485;-70
2022/08/26 09:59:29;;;;;;;3.90;3.60;;;;;;;;;;4989676;28;20444;-70
2022/08/26 10:01:55;;;;;;;2.80;2.70;;;;;;;;;;5006483;28;20441;-71
2022/08/26 10:04:22;;;;;;;6.73;3.20;;;;;;;;;;4988939;28;20960;-68
2022/08/26 10:06:59;;;;;;;3.87;2.90;;;;;;;;;;4990765;28;20527;-69
2022/08/26 10:09:26;;;;;;;6.40;3.20;;;;;;;;;;4987683;28;20451;-69
2022/08/26 10:11:54;;;;;;;16.53;3.57;;;;;;;;;;4990457;28;20579;-69
2022/08/26 10:14:23;;;;;;;6.00;2.77;;;;;;;;;;4990111;28;20440;-69
2022/08/26 10:16:53;;;;;;;3.20;3.00;;;;;;;;;;4987962;28;20496;-69
2022/08/26 10:19:24;;;;;;;2.77;2.70;;;;;;;;;;4985140;28;20945;-69
2022/08/26 10:21:59;;;;;;;2.80;2.70;;;;;;;;;;5002171;28;20429;-70
2022/08/26 10:24:29;;;;;;;3.63;2.90;;;;;;;;;;4987088;28;20505;-71
2022/08/26 10:26:58;;;;;;;12.53;2.40;;;;;;;;;;4990197;28;20468;-69
2022/08/26 10:29:29;;;;;;;2.90;2.70;;;;;;;;;;5001448;28;21003;-67
2022/08/26 10:31:57;;;;;;;5.78;3.17;;;;;;;;;;4989275;28;20416;-68
2022/08/26 10:34:23;;;;;;;3.00;2.80;;;;;;;;;;4989272;28;20193;-69
2022/08/26 10:36:56;;;;;;;3.10;2.90;;;;;;;;;;4984766;28;20488;-69
2022/08/26 10:39:34;;;;;;;3.43;3.17;;;;;;;;;;4990226;28;20441;-69
2022/08/26 10:42:04;;;;;;;3.20;3.10;;;;;;;;;;4991374;28;20417;-69
2022/08/26 10:44:34;;;;;;;8.10;2.57;;;;;;;;;;4991125;28;20440;-69
2022/08/26 10:47:09;;;;;;;3.60;3.30;;;;;;;;;;4987085;28;20442;-69
2022/08/26 10:49:35;;;;;;;9.43;3.97;;;;;;;;;;4988095;28;20475;-70
2022/08/26 10:52:20;;;;;;;11.73;2.70;;;;;;;;;;4988080;28;20528;-69
2022/08/26 10:54:52;;;;;;;2.40;2.20;;;;;;;;;;4989191;28;20426;-68
2022/08/26 10:57:27;;;;;;;6.73;2.43;;;;;;;;;;4986990;28;20858;-68
2022/08/26 10:59:58;;;;;;;3.37;2.80;;;;;;;;;;4987175;28;20527;-69
2022/08/26 11:02:40;;;;;;;5.60;2.70;;;;;;;;;;4990362;28;20804;-68
2022/08/26 11:05:14;;;;;;;4.40;2.67;;;;;;;;;;4987920;28;20437;-68
2022/08/26 11:07:45;;;;;;;5.87;2.73;;;;;;;;;;4985800;28;20436;-69
2022/08/26 11:10:16;;;;;;;3.03;2.50;;;;;;;;;;4984924;28;20453;-69
2022/08/26 11:12:44;;;;;;;2.77;2.67;;;;;;;;;;4983449;28;20508;-67
2022/08/26 11:15:33;;;;;;;3.10;2.90;;;;;;;;;;5001565;28;20429;-68
2022/08/26 11:18:00;;;;;;;2.93;2.83;;;;;;;;;;4982479;28;20754;-69
2022/08/26 11:20:32;;;;;;;3.00;2.90;;;;;;;;;;4983643;28;20463;-70
2022/08/26 11:23:18;;;;;;;6.90;3.10;;;;;;;;;;4986470;28;20441;-69
2022/08/26 11:26:04;;;;;;;3.10;3.00;;;;;;;;;;4988312;28;20850;-69
2022/08/26 11:28:42;;;;;;;9.03;2.80;;;;;;;;;;4999575;28;20477;-69
2022/08/26 11:31:09;;;;;;;8.40;2.80;;;;;;;;;;4986632;28;22115;-70
2022/08/26 11:33:47;;;;;;;2.33;2.23;;;;;;;;;;4988319;28;20444;-70
2022/08/26 11:36:32;;;;;;;7.20;2.90;;;;;;;;;;4990066;28;20473;-69
2022/08/26 11:38:58;;;;;;;4.63;2.57;;;;;;;;;;4989023;28;20452;-69
2022/08/26 11:41:28;;;;;;;2.50;2.40;;;;;;;;;;4986663;28;20448;-68
2022/08/26 11:43:55;;;;;;;3.00;2.90;;;;;;;;;;4987150;28;20516;-68
2022/08/26 11:46:34;;;;;;;9.03;2.93;;;;;;;;;;4987394;28;20440;-68
2022/08/26 11:49:04;;;;;;;4.20;3.17;;;;;;;;;;4984702;28;20536;-69
2022/08/26 11:51:30;;;;;;;4.37;2.77;;;;;;;;;;4984714;28;20448;-69
2022/08/26 11:54:10;;;;;;;10.23;3.17;;;;;;;;;;4989453;28;20413;-69
2022/08/26 11:56:37;;;;;;;3.73;3.43;;;;;;;;;;4986550;28;20484;-70
2022/08/26 11:59:07;;;;;;;8.53;4.03;;;;;;;;;;4988024;28;20440;-68
2022/08/26 12:01:37;;;;;;;4.30;3.70;;;;;;;;;;4988304;28;20469;-69
2022/08/26 12:04:05;;;;;;;3.70;3.00;;;;;;;;;;4987930;28;20915;-68
2022/08/26 12:06:33;;;;;;;5.40;3.67;;;;;;;;;;4986422;28;20437;-69
2022/08/26 12:09:01;;;;;;;5.17;2.80;;;;;;;;;;4987402;28;20433;-70
2022/08/26 12:11:29;;;;;;;3.60;2.93;;;;;;;;;;4989557;28;20929;-68
2022/08/26 12:13:56;;;;;;;2.50;2.40;;;;;;;;;;4986734;28;20440;-68
2022/08/26 12:16:24;;;;;;;5.30;3.30;;;;;;;;;;4986446;28;20491;-69
2022/08/26 12:18:52;;;;;;;3.70;3.40;;;;;;;;;;4993469;28;20964;-69
2022/08/26 12:21:21;;;;;;;3.30;3.20;;;;;;;;;;4990881;28;20495;-70
2022/08/26 12:23:48;;;;;;;3.83;3.07;;;;;;;;;;4991467;28;20955;-67
2022/08/26 12:26:23;;;;;;;4.67;3.20;;;;;;;;;;4991751;28;20445;-70
2022/08/26 12:28:54;;;;;;;6.20;5.63;;;;;;;;;;4992878;28;21067;-70
2022/08/26 12:31:23;;;;;;;2.70;2.33;;;;;;;;;;4990360;28;20451;-71
2022/08/26 12:33:49;;;;;;;3.30;3.20;;;;;;;;;;4991033;28;20520;-69
2022/08/26 12:36:21;;;;;;;3.33;3.13;;;;;;;;;;5003621;28;21012;-70
2022/08/26 12:38:47;;;;;;;2.90;2.80;;;;;;;;;;4993330;28;20471;-69
2022/08/26 12:41:33;;;;;;;2.73;2.63;;;;;;;;;;4993186;28;20456;-68
2022/08/26 12:43:59;;;;;;;3.07;2.93;;;;;;;;;;4993637;28;20417;-69
2022/08/26 12:46:27;;;;;;;4.00;3.10;;;;;;;;;;4992548;28;20528;-69
2022/08/26 12:48:53;;;;;;;3.00;2.90;;;;;;;;;;4989025;28;21861;-69
2022/08/26 12:51:29;;;;;;;3.20;3.00;;;;;;;;;;4992997;28;20459;-70
2022/08/26 12:53:56;;;;;;;3.10;3.00;;;;;;;;;;4988198;28;20531;-70
2022/08/26 12:56:37;;;;;;;7.73;3.63;;;;;;;;;;4991747;28;20887;-68
2022/08/26 12:59:04;;;;;;;4.03;3.43;;;;;;;;;;4991756;28;20429;-67
2022/08/26 13:01:43;;;;;;;3.03;2.93;;;;;;;;;;4992993;28;20451;-71
2022/08/26 13:04:28;;;;;;;3.33;3.13;;;;;;;;;;4993349;28;20436;-69
2022/08/26 13:07:13;;;;;;;4.13;3.60;;;;;;;;;;4990646;28;20451;-70
2022/08/26 13:09:39;;;;;;;3.20;3.10;;;;;;;;;;5006420;28;20452;-68
2022/08/26 13:12:05;;;;;;;2.83;2.63;;;;;;;;;;4991986;28;20436;-68
2022/08/26 13:14:31;;;;;;;3.67;3.07;;;;;;;;;;4991930;28;20522;-69
2022/08/26 13:16:57;;;;;;;3.87;3.67;;;;;;;;;;4989916;28;20489;-70
2022/08/26 13:19:24;;;;;;;3.83;3.63;;;;;;;;;;4985916;28;20438;-69
2022/08/26 13:21:58;;;;;;;3.63;3.40;;;;;;;;;;4990679;28;20460;-68
2022/08/26 13:24:24;;;;;;;3.20;3.10;;;;;;;;;;5007296;28;20517;-69
2022/08/26 13:26:50;;;;;;;3.70;3.60;;;;;;;;;;4985111;28;20520;-69
2022/08/26 13:29:17;;;;;;;6.40;3.40;;;;;;;;;;4991225;28;20277;-70
2022/08/26 13:31:43;;;;;;;4.00;3.90;;;;;;;;;;4990405;28;20449;-69
2022/08/26 13:34:14;;;;;;;3.50;3.40;;;;;;;;;;4989343;28;20434;-68
2022/08/26 13:36:43;;;;;;;4.23;3.70;;;;;;;;;;5005445;28;20547;-71
2022/08/26 13:39:09;;;;;;;3.17;2.97;;;;;;;;;;4989961;28;20795;-68
2022/08/26 13:41:35;;;;;;;6.43;3.87;;;;;;;;;;4986358;28;20479;-67
2022/08/26 13:44:01;;;;;;;2.87;2.83;;;;;;;;;;4989155;28;20435;-70
2022/08/26 13:46:28;;;;;;;2.93;2.93;;;;;;;;;;4989753;28;21111;-70
2022/08/26 13:48:54;;;;;;;4.33;3.93;;;;;;;;;;4990024;28;20444;-66
2022/08/26 13:51:21;;;;;;;4.00;3.70;;;;;;;;;;5005572;28;20433;-65
2022/08/26 13:53:47;;;;;;;6.60;3.97;;;;;;;;;;4986438;28;20994;-67
2022/08/26 13:56:13;;;;;;;4.00;3.80;;;;;;;;;;4989491;28;20493;-66
2022/08/26 13:58:39;;;;;;;3.30;3.20;;;;;;;;;;4989433;28;20484;-67
2022/08/26 14:01:06;;;;;;;3.30;3.20;;;;;;;;;;4987493;28;20476;-66
2022/08/26 14:03:32;;;;;;;4.43;4.13;;;;;;;;;;5005465;28;20869;-68
2022/08/26 14:05:58;;;;;;;3.37;3.27;;;;;;;;;;4989586;28;20433;-66
2022/08/26 14:08:24;;;;;;;8.33;4.20;;;;;;;;;;4989865;28;20425;-66
2022/08/26 14:10:50;;;;;;;3.10;2.90;;;;;;;;;;4990641;28;20475;-67
2022/08/26 14:13:17;;;;;;;3.60;3.30;;;;;;;;;;5005214;28;20858;-66
2022/08/26 14:15:43;;;;;;;12.17;3.50;;;;;;;;;;4984643;28;20459;-67
2022/08/26 14:18:10;;;;;;;3.00;2.87;;;;;;;;;;4989157;28;20925;-66
2022/08/26 14:20:36;;;;;;;3.37;3.10;;;;;;;;;;4972117;28;20513;-66
2022/08/26 14:23:02;;;;;;;4.20;3.90;;;;;;;;;;4973514;28;20906;-67
2022/08/26 14:25:29;;;;;;;3.60;3.50;;;;;;;;;;4985517;28;20425;-66
2022/08/26 14:27:58;;;;;;;3.77;3.47;;;;;;;;;;4989937;28;20584;-68
2022/08/26 14:30:24;;;;;;;5.03;3.90;;;;;;;;;;4991131;28;20486;-66
2022/08/26 14:32:52;;;;;;;4.93;4.63;;;;;;;;;;4988293;28;20433;-67
2022/08/26 14:35:20;;;;;;;5.17;4.87;;;;;;;;;;4985900;28;20430;-68
2022/08/26 14:37:46;;;;;;;5.43;5.13;;;;;;;;;;4985377;28;20488;-69
2022/08/26 14:40:13;;;;;;;5.30;5.10;;;;;;;;;;4989227;28;20596;-67
2022/08/26 14:42:40;;;;;;;5.57;5.10;;;;;;;;;;4990246;28;20449;-70
2022/08/26 14:45:08;;;;;;;6.73;5.80;;;;;;;;;;4991568;28;20763;-67
2022/08/26 14:47:34;;;;;;;5.20;4.90;;;;;;;;;;4990232;28;21198;-65
2022/08/26 14:50:00;;;;;;;6.00;5.70;;;;;;;;;;4988082;28;20528;-67
2022/08/26 14:52:26;;;;;;;6.30;5.60;;;;;;;;;;4990428;28;20782;-67
2022/08/26 14:54:52;;;;;;;7.33;5.10;;;;;;;;;;4987069;28;20434;-66
2022/08/26 14:57:18;;;;;;;6.33;5.13;;;;;;;;;;5003104;28;20492;-66
2022/08/26 14:59:45;;;;;;;5.63;5.13;;;;;;;;;;4987750;28;20196;-66